createdAt,value
2022-11-18T00:01:32.521Z,100.00
2022-11-18T00:04:00.816Z,100.00
2022-11-18T00:06:32.588Z,100.00
2022-11-18T00:09:01.726Z,100.00
2022-11-18T00:11:48.144Z,100.00
2022-11-18T00:14:20.733Z,100.00
2022-11-18T00:16:51.325Z,100.00
2022-11-18T00:19:20.485Z,100.00
2022-11-18T00:21:49.191Z,100.00
2022-11-18T00:24:17.452Z,100.00
2022-11-18T00:26:45.960Z,100.00
2022-11-18T00:29:14.771Z,100.00
2022-11-18T00:31:45.278Z,100.00
2022-11-18T00:34:15.331Z,100.00
2022-11-18T00:36:44.870Z,100.00
2022-11-18T00:39:14.509Z,100.00
2022-11-18T00:42:00.659Z,100.00
2022-11-18T00:44:29.342Z,100.00
2022-11-18T00:46:59.544Z,100.00
2022-11-18T00:49:27.583Z,100.00
2022-11-18T00:51:56.081Z,100.00
2022-11-18T00:54:24.207Z,100.00
2022-11-18T00:56:52.568Z,100.00
2022-11-18T00:59:21.032Z,100.00
2022-11-18T01:01:50.021Z,100.00
2022-11-18T01:04:19.698Z,99.57
2022-11-18T01:06:48.099Z,98.54
2022-11-18T01:09:16.664Z,98.27
2022-11-18T01:12:02.455Z,98.24
2022-11-18T01:14:30.963Z,97.88
2022-11-18T01:16:59.482Z,98.32
2022-11-18T01:19:29.002Z,98.40
2022-11-18T01:22:03.127Z,99.20
2022-11-18T01:24:32.108Z,99.89
2022-11-18T01:27:01.568Z,100.00
2022-11-18T01:29:30.001Z,99.76
2022-11-18T01:34:47.918Z,100.00
2022-11-18T01:37:16.321Z,100.00
2022-11-18T01:39:44.427Z,98.66
2022-11-18T01:42:16.053Z,99.08
2022-11-18T01:45:05.223Z,99.61
2022-11-18T01:47:37.192Z,99.90
2022-11-18T01:50:09.041Z,99.39
2022-11-18T01:52:39.094Z,99.81
2022-11-18T01:55:14.638Z,100.00
2022-11-18T01:57:43.494Z,99.99
2022-11-18T02:00:13.334Z,100.00
2022-11-18T02:02:41.691Z,100.00
2022-11-18T02:05:14.177Z,100.00
2022-11-18T02:07:44.626Z,100.00
2022-11-18T02:10:22.374Z,100.00
2022-11-18T02:12:51.912Z,100.00
2022-11-18T02:15:26.719Z,100.00
2022-11-18T02:18:03.470Z,100.00
2022-11-18T02:20:37.620Z,100.00
2022-11-18T02:23:54.107Z,100.00
2022-11-18T02:26:55.222Z,100.00
2022-11-18T02:29:28.655Z,100.00
2022-11-18T02:32:01.267Z,100.00
2022-11-18T02:34:41.379Z,100.00
2022-11-18T02:37:18.784Z,100.00
2022-11-18T02:39:56.696Z,100.00
2022-11-18T02:42:27.709Z,100.00
2022-11-18T02:45:01.753Z,100.00
2022-11-18T02:47:32.902Z,100.00
2022-11-18T02:50:05.004Z,100.00
2022-11-18T02:52:34.792Z,100.00
2022-11-18T02:55:05.416Z,100.00
2022-11-18T02:57:35.518Z,100.00
2022-11-18T03:00:06.541Z,100.00
2022-11-18T03:02:42.920Z,100.00
2022-11-18T03:05:18.295Z,100.00
2022-11-18T03:07:51.714Z,100.00
2022-11-18T03:10:24.747Z,100.00
2022-11-18T03:13:03.788Z,100.00
2022-11-18T03:15:38.332Z,100.00
2022-11-18T03:18:17.831Z,100.00
2022-11-18T03:20:51.293Z,100.00
2022-11-18T03:23:28.753Z,100.00
2022-11-18T03:26:00.843Z,100.00
2022-11-18T03:28:35.846Z,100.00
2022-11-18T03:31:36.814Z,100.00
2022-11-18T03:34:11.065Z,100.00
2022-11-18T03:36:43.054Z,100.00
2022-11-18T03:39:14.113Z,100.00
2022-11-18T03:41:52.936Z,100.00
2022-11-18T03:44:28.904Z,100.00
2022-11-18T03:47:03.528Z,100.00
2022-11-18T03:49:38.367Z,100.00
2022-11-18T03:52:12.092Z,100.00
2022-11-18T03:54:42.829Z,100.00
2022-11-18T03:57:16.129Z,100.00
2022-11-18T03:59:48.882Z,100.00
2022-11-18T04:02:21.781Z,100.00
2022-11-18T04:04:53.225Z,100.00
2022-11-18T04:07:26.045Z,100.00
2022-11-18T04:09:59.794Z,100.00
2022-11-18T04:12:32.862Z,100.00
2022-11-18T04:15:01.372Z,100.00
2022-11-18T04:17:31.566Z,100.00
2022-11-18T04:19:59.646Z,100.00
2022-11-18T04:22:28.080Z,100.00
2022-11-18T04:24:56.096Z,100.00
2022-11-18T04:27:24.439Z,100.00
2022-11-18T04:29:52.609Z,100.00
2022-11-18T04:32:20.995Z,100.00
2022-11-18T04:34:50.637Z,100.00
2022-11-18T04:37:19.177Z,100.00
2022-11-18T04:39:47.183Z,100.00
2022-11-18T04:42:15.839Z,100.00
2022-11-18T04:44:44.026Z,100.00
2022-11-18T04:47:12.369Z,100.00
2022-11-18T04:49:40.565Z,100.00
2022-11-18T04:52:10.450Z,100.00
2022-11-18T04:54:38.529Z,100.00
2022-11-18T04:57:07.023Z,100.00
2022-11-18T04:59:35.251Z,100.00
2022-11-18T05:02:03.919Z,100.00
2022-11-18T05:04:34.785Z,100.00
2022-11-18T05:07:05.158Z,100.00
2022-11-18T05:09:34.724Z,100.00
2022-11-18T05:12:22.725Z,100.00
2022-11-18T05:14:51.264Z,100.00
2022-11-18T05:17:20.259Z,100.00
2022-11-18T05:19:48.360Z,100.00
2022-11-18T05:22:16.720Z,100.00
2022-11-18T05:24:46.310Z,100.00
2022-11-18T05:27:15.319Z,100.00
2022-11-18T05:29:43.485Z,100.00
2022-11-18T05:32:12.075Z,100.00
2022-11-18T05:34:43.949Z,100.00
2022-11-18T05:37:13.044Z,100.00
2022-11-18T05:39:41.389Z,100.00
2022-11-18T05:42:28.814Z,100.00
2022-11-18T05:44:58.655Z,100.00
2022-11-18T05:47:50.130Z,99.94
2022-11-18T05:50:21.291Z,99.13
2022-11-18T05:52:50.010Z,98.72
2022-11-18T05:55:21.036Z,98.42
2022-11-18T05:57:53.687Z,98.46
2022-11-18T06:00:21.643Z,98.46
2022-11-18T06:02:52.736Z,98.64
2022-11-18T06:05:23.162Z,98.45
2022-11-18T06:07:51.564Z,98.77
2022-11-18T06:10:24.866Z,99.14
2022-11-18T06:12:58.945Z,99.25
2022-11-18T06:15:29.653Z,98.98
2022-11-18T06:18:03.235Z,97.91
2022-11-18T06:20:31.630Z,97.84
2022-11-18T06:23:01.884Z,97.23
2022-11-18T06:25:30.769Z,96.83
2022-11-18T06:28:03.396Z,95.08
2022-11-18T06:30:31.893Z,95.18
2022-11-18T06:33:00.181Z,93.36
2022-11-18T06:35:28.281Z,92.74
2022-11-18T06:37:56.794Z,91.51
2022-11-18T06:40:24.828Z,89.95
2022-11-18T06:43:11.185Z,89.78
2022-11-18T06:46:07.686Z,89.04
2022-11-18T06:48:40.499Z,88.57
2022-11-18T06:51:09.104Z,88.63
2022-11-18T06:53:37.915Z,87.91
2022-11-18T06:56:07.313Z,87.63
2022-11-18T06:58:36.545Z,86.40
2022-11-18T07:01:12.793Z,85.71
2022-11-18T07:03:41.326Z,83.60
2022-11-18T07:06:10.363Z,83.44
2022-11-18T07:08:40.093Z,84.67
2022-11-18T07:11:09.760Z,83.46
2022-11-18T07:13:43.351Z,83.62
2022-11-18T07:16:15.036Z,84.20
2022-11-18T07:18:44.938Z,82.96
2022-11-18T07:21:17.311Z,81.29
2022-11-18T07:23:45.859Z,81.28
2022-11-18T07:26:14.850Z,81.12
2022-11-18T07:28:43.287Z,79.12
2022-11-18T07:31:15.039Z,79.77
2022-11-18T07:33:45.947Z,79.16
2022-11-18T07:36:16.049Z,78.97
2022-11-18T07:38:44.689Z,78.26
2022-11-18T07:41:14.262Z,78.93
2022-11-18T07:43:45.086Z,79.21
2022-11-18T07:46:16.968Z,77.80
2022-11-18T07:48:47.221Z,78.04
2022-11-18T07:51:17.363Z,77.59
2022-11-18T07:53:46.196Z,77.53
2022-11-18T07:56:15.392Z,76.42
2022-11-18T07:58:44.162Z,75.25
2022-11-18T08:01:16.795Z,75.79
2022-11-18T08:03:46.273Z,75.58
2022-11-18T08:06:16.286Z,75.49
2022-11-18T08:08:45.309Z,76.01
2022-11-18T08:11:20.593Z,75.87
2022-11-18T08:13:51.066Z,76.24
2022-11-18T08:16:22.362Z,75.57
2022-11-18T08:18:51.568Z,76.45
2022-11-18T08:21:22.375Z,77.03
2022-11-18T08:23:52.002Z,77.02
2022-11-18T08:26:20.829Z,80.57
2022-11-18T08:28:49.910Z,81.44
2022-11-18T08:31:21.670Z,83.17
2022-11-18T08:33:50.151Z,83.48
2022-11-18T08:36:20.081Z,83.64
2022-11-18T08:38:48.891Z,84.70
2022-11-18T08:41:19.534Z,84.14
2022-11-18T08:43:47.905Z,81.94
2022-11-18T08:46:16.293Z,82.50
2022-11-18T08:48:46.429Z,82.54
2022-11-18T08:51:16.042Z,82.33
2022-11-18T08:53:45.344Z,82.77
2022-11-18T08:56:17.242Z,82.60
2022-11-18T08:58:46.694Z,83.46
2022-11-18T09:01:15.275Z,83.41
2022-11-18T09:03:45.739Z,83.03
2022-11-18T09:06:19.422Z,83.58
2022-11-18T09:08:49.329Z,83.84
2022-11-18T09:11:21.166Z,84.49
2022-11-18T09:15:06.133Z,84.38
2022-11-18T09:16:43.699Z,85.46
2022-11-18T09:19:45.002Z,85.56
2022-11-18T09:22:03.314Z,85.70
2022-11-18T09:24:32.196Z,85.86
2022-11-18T09:27:02.224Z,85.14
2022-11-18T09:29:30.593Z,85.76
2022-11-18T09:32:01.912Z,85.26
2022-11-18T09:34:31.574Z,84.59
2022-11-18T09:37:00.217Z,84.49
2022-11-18T09:39:28.582Z,84.31
2022-11-18T09:42:13.023Z,85.20
2022-11-18T09:44:53.385Z,84.89
2022-11-18T09:47:28.709Z,84.49
2022-11-18T09:50:10.632Z,84.07
2022-11-18T09:53:02.095Z,83.75
2022-11-18T09:55:30.960Z,82.82
2022-11-18T09:58:00.528Z,82.84
2022-11-18T10:00:31.227Z,82.36
2022-11-18T10:03:04.948Z,81.44
2022-11-18T10:05:45.877Z,81.31
2022-11-18T10:08:23.165Z,80.97
2022-11-18T10:11:00.204Z,81.37
2022-11-18T10:13:43.450Z,80.47
2022-11-18T10:16:24.544Z,80.17
2022-11-18T10:19:00.576Z,78.57
2022-11-18T10:21:43.529Z,78.47
2022-11-18T10:24:18.050Z,76.21
2022-11-18T10:26:46.488Z,76.27
2022-11-18T10:29:14.924Z,76.93
2022-11-18T10:31:59.558Z,76.90
2022-11-18T10:34:31.755Z,76.59
2022-11-18T10:37:03.177Z,76.59
2022-11-18T10:39:31.603Z,76.08
2022-11-18T10:42:03.060Z,74.46
2022-11-18T10:44:40.067Z,72.45
2022-11-18T10:47:24.143Z,72.66
2022-11-18T10:49:53.452Z,73.80
2022-11-18T10:52:23.568Z,74.04
2022-11-18T10:55:22.290Z,74.29
2022-11-18T10:57:53.737Z,74.07
2022-11-18T11:00:53.706Z,73.79
2022-11-18T11:03:27.814Z,73.39
2022-11-18T11:06:39.588Z,73.11
2022-11-18T11:09:11.610Z,72.89
2022-11-18T11:11:43.782Z,70.14
2022-11-18T11:14:21.344Z,70.96
2022-11-18T11:16:57.909Z,70.48
2022-11-18T11:19:32.232Z,71.07
2022-11-18T11:22:00.935Z,70.90
2022-11-18T11:24:31.133Z,71.48
2022-11-18T11:30:16.572Z,71.35
2022-11-18T11:33:21.809Z,70.76
2022-11-18T11:35:58.983Z,70.47
2022-11-18T11:38:37.047Z,71.24
2022-11-18T11:41:17.582Z,71.12
2022-11-18T11:43:56.087Z,71.97
2022-11-18T11:46:42.417Z,71.73
2022-11-18T11:49:19.767Z,72.29
2022-11-18T11:51:52.995Z,73.41
2022-11-18T11:54:31.915Z,73.47
2022-11-18T11:57:06.316Z,73.15
2022-11-18T11:59:46.279Z,72.50
2022-11-18T12:02:39.877Z,72.98
2022-11-18T12:05:19.309Z,72.92
2022-11-18T12:07:52.810Z,72.33
2022-11-18T12:10:31.866Z,72.14
2022-11-18T12:13:17.197Z,72.27
2022-11-18T12:16:01.723Z,71.25
2022-11-18T12:18:37.151Z,72.14
2022-11-18T12:21:05.916Z,72.68
2022-11-18T12:23:35.016Z,72.15
2022-11-18T12:26:04.622Z,71.99
2022-11-18T12:28:37.783Z,73.29
2022-11-18T12:31:33.420Z,70.95
2022-11-18T12:34:06.195Z,71.06
2022-11-18T12:36:38.637Z,71.27
2022-11-18T12:39:37.873Z,71.21
2022-11-18T12:42:24.657Z,71.48
2022-11-18T12:44:55.154Z,72.29
2022-11-18T12:47:57.876Z,71.59
2022-11-18T12:50:49.776Z,72.03
2022-11-18T12:53:36.638Z,72.13
2022-11-18T12:56:21.620Z,71.28
2022-11-18T12:58:51.764Z,71.55
2022-11-18T13:01:28.252Z,72.90
2022-11-18T13:04:08.641Z,72.89
2022-11-18T13:06:40.142Z,73.59
2022-11-18T13:09:18.210Z,74.41
2022-11-18T13:11:52.038Z,74.14
2022-11-18T13:14:44.257Z,73.01
2022-11-18T13:17:46.952Z,72.41
2022-11-18T13:20:23.866Z,71.86
2022-11-18T13:23:10.991Z,72.15
2022-11-18T13:25:39.948Z,71.88
2022-11-18T13:28:20.324Z,70.95
2022-11-18T13:30:55.495Z,71.81
2022-11-18T13:33:25.359Z,72.32
2022-11-18T13:35:53.991Z,72.74
2022-11-18T13:38:28.490Z,73.52
2022-11-18T13:41:08.226Z,73.99
2022-11-18T13:43:36.689Z,74.00
2022-11-18T13:46:08.158Z,73.39
2022-11-18T13:48:41.925Z,73.49
2022-11-18T13:51:10.781Z,73.26
2022-11-18T13:53:40.465Z,72.53
2022-11-18T13:56:19.340Z,73.03
2022-11-18T13:59:16.317Z,73.34
2022-11-18T14:01:47.299Z,73.50
2022-11-18T14:04:22.870Z,72.88
2022-11-18T14:06:51.748Z,73.04
2022-11-18T14:09:24.843Z,73.56
2022-11-18T14:12:02.961Z,74.01
2022-11-18T14:14:33.885Z,73.92
2022-11-18T14:17:16.461Z,74.00
2022-11-18T14:19:46.779Z,74.37
2022-11-18T14:22:17.707Z,74.11
2022-11-18T14:24:56.006Z,74.17
2022-11-18T14:27:37.638Z,74.20
2022-11-18T14:30:31.252Z,74.53
2022-11-18T14:33:24.396Z,74.50
2022-11-18T14:35:58.296Z,72.52
2022-11-18T14:38:51.981Z,72.67
2022-11-18T14:41:44.689Z,70.78
2022-11-18T14:44:14.700Z,71.58
2022-11-18T14:46:45.847Z,71.33
2022-11-18T14:49:17.350Z,71.62
2022-11-18T14:51:47.419Z,71.42
2022-11-18T14:54:23.788Z,71.75
2022-11-18T14:56:58.052Z,72.08
2022-11-18T14:59:28.562Z,72.63
2022-11-18T15:01:59.001Z,72.76
2022-11-18T15:04:27.877Z,72.17
2022-11-18T15:06:57.419Z,69.71
2022-11-18T15:09:28.631Z,67.98
2022-11-18T15:11:59.070Z,66.38
2022-11-18T15:14:27.971Z,66.71
2022-11-18T15:16:56.038Z,66.50
2022-11-18T15:19:24.447Z,66.77
2022-11-18T15:21:52.693Z,68.40
2022-11-18T15:24:22.602Z,68.55
2022-11-18T15:26:50.898Z,69.58
2022-11-18T15:29:20.903Z,70.25
2022-11-18T15:31:49.652Z,71.06
2022-11-18T15:34:20.436Z,71.58
2022-11-18T15:36:49.352Z,71.14
2022-11-18T15:39:17.887Z,71.75
2022-11-18T15:41:47.793Z,71.46
2022-11-18T15:44:16.940Z,72.23
2022-11-18T15:46:49.123Z,72.62
2022-11-18T15:49:18.839Z,72.85
2022-11-18T15:51:46.777Z,73.48
2022-11-18T15:54:15.430Z,74.88
2022-11-18T15:56:43.571Z,74.94
2022-11-18T15:59:14.546Z,74.11
2022-11-18T16:01:44.133Z,74.24
2022-11-18T16:04:14.450Z,74.24
2022-11-18T16:06:44.338Z,74.14
2022-11-18T16:09:15.767Z,74.75
2022-11-18T16:12:02.086Z,75.18
2022-11-18T16:14:31.812Z,75.86
2022-11-18T16:16:59.671Z,75.48
2022-11-18T16:19:33.627Z,76.56
2022-11-18T16:22:01.841Z,76.13
2022-11-18T16:24:31.004Z,77.25
2022-11-18T16:26:59.844Z,76.98
2022-11-18T16:29:28.240Z,77.93
2022-11-18T16:31:57.818Z,76.90
2022-11-18T16:34:27.905Z,77.59
2022-11-18T16:36:57.802Z,77.77
2022-11-18T16:39:27.589Z,76.92
2022-11-18T16:42:02.091Z,77.98
2022-11-18T16:44:35.351Z,77.05
2022-11-18T16:47:12.376Z,77.48
2022-11-18T16:49:43.119Z,77.89
2022-11-18T16:52:11.703Z,77.03
2022-11-18T16:54:45.176Z,77.57
2022-11-18T16:57:14.484Z,77.39
2022-11-18T16:59:42.871Z,77.90
2022-11-18T17:02:14.055Z,77.93
2022-11-18T17:04:42.951Z,78.68
2022-11-18T17:07:11.178Z,78.57
2022-11-18T17:09:40.151Z,78.46
2022-11-18T17:12:08.952Z,78.55
2022-11-18T17:14:38.623Z,78.77
2022-11-18T17:17:07.338Z,79.84
2022-11-18T17:19:37.239Z,79.80
2022-11-18T17:22:05.333Z,80.47
2022-11-18T17:24:34.089Z,80.24
2022-11-18T17:27:02.536Z,80.04
2022-11-18T17:29:32.928Z,80.40
2022-11-18T17:32:01.451Z,80.36
2022-11-18T17:34:32.285Z,80.77
2022-11-18T17:37:06.832Z,80.44
2022-11-18T17:39:35.891Z,80.41
2022-11-18T17:42:18.238Z,79.62
2022-11-18T17:44:47.196Z,79.25
2022-11-18T17:47:15.335Z,78.99
2022-11-18T17:49:43.874Z,78.71
2022-11-18T17:52:13.372Z,79.46
2022-11-18T17:54:41.760Z,79.30
2022-11-18T17:57:09.959Z,79.24
2022-11-18T17:59:38.898Z,79.57
2022-11-18T18:02:14.624Z,79.56
2022-11-18T18:04:43.141Z,80.02
2022-11-18T18:07:11.230Z,79.94
2022-11-18T18:09:41.097Z,80.21
2022-11-18T18:12:23.359Z,80.29
2022-11-18T18:14:52.254Z,80.50
2022-11-18T18:17:20.350Z,80.81
2022-11-18T18:19:48.719Z,82.51
2022-11-18T18:22:16.975Z,82.44
2022-11-18T18:24:46.707Z,82.13
2022-11-18T18:27:14.887Z,82.09
2022-11-18T18:29:43.529Z,82.29
2022-11-18T18:32:11.612Z,82.94
2022-11-18T18:34:39.988Z,84.28
2022-11-18T18:37:09.384Z,85.10
2022-11-18T18:39:37.922Z,84.56
2022-11-18T18:42:07.950Z,84.32
2022-11-18T18:44:54.449Z,84.20
2022-11-18T18:47:22.528Z,84.23
2022-11-18T18:49:51.127Z,83.99
2022-11-18T18:52:19.286Z,83.21
2022-11-18T18:54:47.675Z,83.10
2022-11-18T18:57:17.139Z,82.82
2022-11-18T18:59:48.763Z,82.84
2022-11-18T19:02:16.928Z,82.65
2022-11-18T19:04:46.653Z,82.64
2022-11-18T19:07:16.964Z,82.50
2022-11-18T19:09:48.119Z,82.46
2022-11-18T19:12:34.434Z,82.69
2022-11-18T19:15:02.899Z,82.98
2022-11-18T19:17:32.603Z,83.82
2022-11-18T19:20:18.622Z,84.36
2022-11-18T19:22:46.726Z,84.33
2022-11-18T19:25:15.238Z,84.90
2022-11-18T19:27:44.952Z,85.02
2022-11-18T19:30:13.961Z,85.13
2022-11-18T19:32:42.939Z,85.30
2022-11-18T19:35:11.767Z,85.16
2022-11-18T19:37:41.047Z,84.80
2022-11-18T19:40:13.377Z,84.73
2022-11-18T19:42:42.732Z,84.31
2022-11-18T19:45:13.019Z,84.78
2022-11-18T19:47:41.436Z,84.16
2022-11-18T19:50:10.903Z,83.85
2022-11-18T19:52:39.032Z,84.00
2022-11-18T19:55:12.811Z,84.61
2022-11-18T19:57:40.874Z,83.78
2022-11-18T20:00:11.106Z,83.69
2022-11-18T20:02:41.614Z,84.34
2022-11-18T20:05:27.541Z,83.95
2022-11-18T20:07:56.819Z,84.05
2022-11-18T20:10:25.451Z,84.23
2022-11-18T20:12:53.818Z,83.36
2022-11-18T20:15:22.505Z,83.03
2022-11-18T20:17:51.995Z,83.30
2022-11-18T20:20:20.648Z,82.88
2022-11-18T20:22:48.834Z,83.97
2022-11-18T20:25:19.713Z,83.72
2022-11-18T20:27:48.028Z,83.68
2022-11-18T20:30:18.472Z,83.54
2022-11-18T20:32:46.824Z,83.51
2022-11-18T20:35:17.022Z,83.54
2022-11-18T20:37:45.246Z,83.85
2022-11-18T20:40:13.870Z,83.26
2022-11-18T20:43:00.290Z,83.53
2022-11-18T20:45:28.717Z,83.50
2022-11-18T20:47:56.802Z,83.41
2022-11-18T20:50:30.659Z,83.34
2022-11-18T20:52:59.769Z,83.57
2022-11-18T20:55:28.425Z,83.58
2022-11-18T20:58:01.522Z,83.18
2022-11-18T21:00:29.899Z,82.95
2022-11-18T21:02:58.364Z,83.14
2022-11-18T21:05:31.330Z,83.67
2022-11-18T21:07:59.709Z,83.46
2022-11-18T21:10:28.041Z,83.16
2022-11-18T21:13:13.882Z,85.49
2022-11-18T21:15:43.348Z,85.85
2022-11-18T21:18:13.765Z,85.93
2022-11-18T21:21:01.447Z,87.42
2022-11-18T21:23:29.527Z,88.21
2022-11-18T21:25:58.052Z,90.09
2022-11-18T21:28:28.416Z,90.17
2022-11-18T21:30:57.145Z,92.03
2022-11-18T21:33:25.319Z,92.03
2022-11-18T21:35:55.195Z,92.51
2022-11-18T21:38:23.867Z,92.44
2022-11-18T21:40:52.385Z,91.88
2022-11-18T21:43:32.806Z,93.07
2022-11-18T21:46:10.657Z,93.01
2022-11-18T21:48:40.464Z,93.29
2022-11-18T21:51:12.875Z,93.81
2022-11-18T21:53:41.127Z,94.07
2022-11-18T21:56:12.476Z,95.50
2022-11-18T21:58:40.658Z,94.74
2022-11-18T22:01:11.142Z,95.79
2022-11-18T22:03:41.271Z,95.39
2022-11-18T22:06:13.526Z,95.79
2022-11-18T22:08:42.396Z,96.26
2022-11-18T22:11:12.859Z,96.51
2022-11-18T22:13:41.739Z,96.78
2022-11-18T22:16:13.083Z,96.93
2022-11-18T22:18:43.245Z,97.58
2022-11-18T22:21:14.921Z,97.48
2022-11-18T22:23:43.821Z,97.83
2022-11-18T22:26:14.287Z,97.94
2022-11-18T22:28:42.750Z,97.27
2022-11-18T22:31:14.183Z,96.98
2022-11-18T22:33:42.964Z,96.88
2022-11-18T22:36:15.143Z,96.51
2022-11-18T22:38:44.585Z,96.46
2022-11-18T22:41:34.716Z,96.43
2022-11-18T22:44:07.036Z,96.71
2022-11-18T22:46:36.882Z,96.55
2022-11-18T22:49:05.573Z,97.62
2022-11-18T22:51:35.921Z,96.74
2022-11-18T22:56:54.814Z,95.58
2022-11-18T22:59:23.415Z,96.18
2022-11-18T23:01:52.326Z,96.45
2022-11-18T23:04:20.905Z,95.48
2022-11-18T23:06:51.133Z,96.35
2022-11-18T23:09:19.528Z,97.17
2022-11-18T23:12:05.860Z,95.76
2022-11-18T23:14:34.177Z,97.19
2022-11-18T23:17:02.605Z,97.90
2022-11-18T23:19:30.953Z,97.39
2022-11-18T23:22:02.244Z,97.31
2022-11-18T23:24:30.147Z,97.55
2022-11-18T23:26:58.644Z,97.90
2022-11-18T23:29:26.802Z,99.76
2022-11-18T23:31:55.677Z,99.23
2022-11-18T23:34:24.250Z,99.43
2022-11-18T23:36:52.672Z,98.52
2022-11-18T23:39:22.489Z,98.39
2022-11-18T23:41:51.171Z,97.65
2022-11-18T23:44:39.253Z,96.66
2022-11-18T23:47:07.841Z,95.61
2022-11-18T23:49:37.094Z,96.08
2022-11-18T23:52:05.854Z,96.50
2022-11-18T23:54:35.326Z,95.51
2022-11-18T23:57:05.390Z,95.91
2022-11-18T23:59:33.766Z,95.26
